sensor_id;sensor_type;location;lat;lon;timestamp;temperature;humidity
47168;DHT22;32931;47.778;17.806;2023-06-10T00:02:12;20.50;99.90
47168;DHT22;32931;47.778;17.806;2023-06-10T00:04:38;20.40;99.90
47168;DHT22;32931;47.778;17.806;2023-06-10T00:07:05;20.40;99.90
47168;DHT22;32931;47.778;17.806;2023-06-10T00:09:38;20.30;99.90
47168;DHT22;32931;47.778;17.806;2023-06-10T00:12:08;20.30;99.90
47168;DHT22;32931;47.778;17.806;2023-06-10T00:14:37;20.30;99.90
47168;DHT22;32931;47.778;17.806;2023-06-10T00:17:04;20.30;99.90
47168;DHT22;32931;47.778;17.806;2023-06-10T00:19:30;20.30;99.90
47168;DHT22;32931;47.778;17.806;2023-06-10T00:21:57;20.30;99.90
47168;DHT22;32931;47.778;17.806;2023-06-10T00:24:23;20.30;99.90
47168;DHT22;32931;47.778;17.806;2023-06-10T00:26:50;20.30;99.90
47168;DHT22;32931;47.778;17.806;2023-06-10T00:29:16;20.30;99.90
47168;DHT22;32931;47.778;17.806;2023-06-10T00:31:44;20.30;99.90
47168;DHT22;32931;47.778;17.806;2023-06-10T00:34:11;20.20;99.90
47168;DHT22;32931;47.778;17.806;2023-06-10T00:36:37;20.20;99.90
47168;DHT22;32931;47.778;17.806;2023-06-10T00:39:03;20.20;99.90
47168;DHT22;32931;47.778;17.806;2023-06-10T00:41:33;20.10;99.90
47168;DHT22;32931;47.778;17.806;2023-06-10T00:43:59;20.10;99.90
47168;DHT22;32931;47.778;17.806;2023-06-10T00:46:26;20.10;99.90
47168;DHT22;32931;47.778;17.806;2023-06-10T00:48:52;20.10;99.90
47168;DHT22;32931;47.778;17.806;2023-06-10T00:51:19;20.10;99.90
47168;DHT22;32931;47.778;17.806;2023-06-10T00:53:46;20.10;99.90
47168;DHT22;32931;47.778;17.806;2023-06-10T00:56:13;20.10;99.90
47168;DHT22;32931;47.778;17.806;2023-06-10T00:58:40;20.10;99.90
47168;DHT22;32931;47.778;17.806;2023-06-10T01:01:06;20.10;99.90
47168;DHT22;32931;47.778;17.806;2023-06-10T01:03:32;20.10;99.90
47168;DHT22;32931;47.778;17.806;2023-06-10T01:08:54;20.00;99.90
47168;DHT22;32931;47.778;17.806;2023-06-10T01:11:33;20.00;99.90
47168;DHT22;32931;47.778;17.806;2023-06-10T01:14:00;20.00;99.90
47168;DHT22;32931;47.778;17.806;2023-06-10T01:16:27;19.90;99.90
47168;DHT22;32931;47.778;17.806;2023-06-10T01:18:54;19.90;99.90
47168;DHT22;32931;47.778;17.806;2023-06-10T01:21:21;19.80;99.90
47168;DHT22;32931;47.778;17.806;2023-06-10T01:23:52;19.80;99.90
47168;DHT22;32931;47.778;17.806;2023-06-10T01:26:22;19.80;99.90
47168;DHT22;32931;47.778;17.806;2023-06-10T01:29:08;19.70;99.90
47168;DHT22;32931;47.778;17.806;2023-06-10T01:34:10;19.60;99.90
47168;DHT22;32931;47.778;17.806;2023-06-10T01:36:37;19.60;99.90
47168;DHT22;32931;47.778;17.806;2023-06-10T01:39:04;19.60;99.90
47168;DHT22;32931;47.778;17.806;2023-06-10T01:41:32;19.50;99.90
47168;DHT22;32931;47.778;17.806;2023-06-10T01:43:58;19.50;99.90
47168;DHT22;32931;47.778;17.806;2023-06-10T01:46:24;19.40;99.90
47168;DHT22;32931;47.778;17.806;2023-06-10T01:48:50;19.40;99.90
47168;DHT22;32931;47.778;17.806;2023-06-10T01:51:17;19.40;99.90
47168;DHT22;32931;47.778;17.806;2023-06-10T01:53:43;19.40;99.90
47168;DHT22;32931;47.778;17.806;2023-06-10T01:56:09;19.30;99.90
47168;DHT22;32931;47.778;17.806;2023-06-10T01:58:35;19.30;99.90
47168;DHT22;32931;47.778;17.806;2023-06-10T02:01:01;19.30;99.90
47168;DHT22;32931;47.778;17.806;2023-06-10T02:03:28;19.20;99.90
47168;DHT22;32931;47.778;17.806;2023-06-10T02:05:54;19.20;99.90
47168;DHT22;32931;47.778;17.806;2023-06-10T02:08:20;19.10;99.90
47168;DHT22;32931;47.778;17.806;2023-06-10T02:10:46;19.10;99.90
47168;DHT22;32931;47.778;17.806;2023-06-10T02:13:12;19.10;99.90
47168;DHT22;32931;47.778;17.806;2023-06-10T02:15:38;19.10;99.90
47168;DHT22;32931;47.778;17.806;2023-06-10T02:18:05;19.10;99.90
47168;DHT22;32931;47.778;17.806;2023-06-10T02:20:31;19.10;99.90
47168;DHT22;32931;47.778;17.806;2023-06-10T02:22:58;19.00;99.90
47168;DHT22;32931;47.778;17.806;2023-06-10T02:25:25;19.00;99.90
47168;DHT22;32931;47.778;17.806;2023-06-10T02:27:51;19.00;99.90
47168;DHT22;32931;47.778;17.806;2023-06-10T02:30:17;19.00;99.90
47168;DHT22;32931;47.778;17.806;2023-06-10T02:32:43;19.00;99.90
47168;DHT22;32931;47.778;17.806;2023-06-10T02:35:14;19.10;99.90
47168;DHT22;32931;47.778;17.806;2023-06-10T02:37:41;19.10;99.90
47168;DHT22;32931;47.778;17.806;2023-06-10T02:40:09;19.10;99.90
47168;DHT22;32931;47.778;17.806;2023-06-10T02:42:35;19.10;99.90
47168;DHT22;32931;47.778;17.806;2023-06-10T02:45:02;19.10;99.90
47168;DHT22;32931;47.778;17.806;2023-06-10T02:47:28;19.10;99.90
47168;DHT22;32931;47.778;17.806;2023-06-10T02:49:54;19.10;99.90
47168;DHT22;32931;47.778;17.806;2023-06-10T02:52:20;19.10;99.90
47168;DHT22;32931;47.778;17.806;2023-06-10T02:54:47;19.10;99.90
47168;DHT22;32931;47.778;17.806;2023-06-10T02:57:13;19.10;99.90
47168;DHT22;32931;47.778;17.806;2023-06-10T02:59:40;19.10;99.90
47168;DHT22;32931;47.778;17.806;2023-06-10T03:02:06;19.10;99.90
47168;DHT22;32931;47.778;17.806;2023-06-10T03:04:33;19.10;99.90
47168;DHT22;32931;47.778;17.806;2023-06-10T03:06:59;19.10;99.90
47168;DHT22;32931;47.778;17.806;2023-06-10T03:09:29;19.10;99.90
47168;DHT22;32931;47.778;17.806;2023-06-10T03:11:55;19.10;99.90
47168;DHT22;32931;47.778;17.806;2023-06-10T03:14:21;19.10;99.90
47168;DHT22;32931;47.778;17.806;2023-06-10T03:16:48;19.10;99.90
47168;DHT22;32931;47.778;17.806;2023-06-10T03:19:14;19.10;99.90
47168;DHT22;32931;47.778;17.806;2023-06-10T03:21:44;19.10;99.90
47168;DHT22;32931;47.778;17.806;2023-06-10T03:24:10;19.10;99.90
47168;DHT22;32931;47.778;17.806;2023-06-10T03:26:36;19.10;99.90
47168;DHT22;32931;47.778;17.806;2023-06-10T03:29:02;19.10;99.90
47168;DHT22;32931;47.778;17.806;2023-06-10T03:31:29;19.10;99.90
47168;DHT22;32931;47.778;17.806;2023-06-10T03:33:55;19.00;99.90
47168;DHT22;32931;47.778;17.806;2023-06-10T03:36:21;19.00;99.90
47168;DHT22;32931;47.778;17.806;2023-06-10T03:38:47;19.00;99.90
47168;DHT22;32931;47.778;17.806;2023-06-10T03:41:14;19.00;99.90
47168;DHT22;32931;47.778;17.806;2023-06-10T03:43:40;19.00;99.90
47168;DHT22;32931;47.778;17.806;2023-06-10T03:46:06;19.10;99.90
47168;DHT22;32931;47.778;17.806;2023-06-10T03:48:32;19.10;99.90
47168;DHT22;32931;47.778;17.806;2023-06-10T03:50:59;19.10;99.90
47168;DHT22;32931;47.778;17.806;2023-06-10T03:53:25;19.10;99.90
47168;DHT22;32931;47.778;17.806;2023-06-10T03:55:51;19.10;99.90
47168;DHT22;32931;47.778;17.806;2023-06-10T03:58:17;19.10;99.90
47168;DHT22;32931;47.778;17.806;2023-06-10T04:00:44;19.10;99.90
47168;DHT22;32931;47.778;17.806;2023-06-10T04:03:11;19.10;99.90
47168;DHT22;32931;47.778;17.806;2023-06-10T04:05:40;19.10;99.90
47168;DHT22;32931;47.778;17.806;2023-06-10T04:08:08;19.10;99.90
47168;DHT22;32931;47.778;17.806;2023-06-10T04:10:34;19.10;99.90
47168;DHT22;32931;47.778;17.806;2023-06-10T04:13:00;19.20;99.90
47168;DHT22;32931;47.778;17.806;2023-06-10T04:15:26;19.20;99.90
47168;DHT22;32931;47.778;17.806;2023-06-10T04:17:53;19.10;99.90
47168;DHT22;32931;47.778;17.806;2023-06-10T04:20:19;19.10;99.90
47168;DHT22;32931;47.778;17.806;2023-06-10T04:22:45;19.10;99.90
47168;DHT22;32931;47.778;17.806;2023-06-10T04:25:11;19.10;99.90
47168;DHT22;32931;47.778;17.806;2023-06-10T04:27:37;19.10;99.90
47168;DHT22;32931;47.778;17.806;2023-06-10T04:30:04;19.10;99.90
47168;DHT22;32931;47.778;17.806;2023-06-10T04:32:30;19.20;99.90
47168;DHT22;32931;47.778;17.806;2023-06-10T04:34:56;19.20;99.90
47168;DHT22;32931;47.778;17.806;2023-06-10T04:37:22;19.30;99.90
47168;DHT22;32931;47.778;17.806;2023-06-10T04:39:48;19.40;99.90
47168;DHT22;32931;47.778;17.806;2023-06-10T04:42:15;19.40;99.90
47168;DHT22;32931;47.778;17.806;2023-06-10T04:44:41;19.50;99.90
47168;DHT22;32931;47.778;17.806;2023-06-10T04:47:07;19.60;99.90
47168;DHT22;32931;47.778;17.806;2023-06-10T04:49:33;19.60;99.90
47168;DHT22;32931;47.778;17.806;2023-06-10T04:51:59;19.70;99.90
47168;DHT22;32931;47.778;17.806;2023-06-10T04:54:26;19.70;99.90
47168;DHT22;32931;47.778;17.806;2023-06-10T04:56:52;19.70;99.90
47168;DHT22;32931;47.778;17.806;2023-06-10T04:59:18;19.80;99.90
47168;DHT22;32931;47.778;17.806;2023-06-10T05:01:44;19.80;99.90
47168;DHT22;32931;47.778;17.806;2023-06-10T05:04:10;19.80;99.90
47168;DHT22;32931;47.778;17.806;2023-06-10T05:06:36;19.80;99.90
47168;DHT22;32931;47.778;17.806;2023-06-10T05:09:02;19.80;99.90
47168;DHT22;32931;47.778;17.806;2023-06-10T05:11:29;19.80;99.90
47168;DHT22;32931;47.778;17.806;2023-06-10T05:13:55;19.90;99.90
47168;DHT22;32931;47.778;17.806;2023-06-10T05:16:21;19.90;99.90
47168;DHT22;32931;47.778;17.806;2023-06-10T05:18:47;19.90;99.90
47168;DHT22;32931;47.778;17.806;2023-06-10T05:21:14;19.90;99.90
47168;DHT22;32931;47.778;17.806;2023-06-10T05:23:41;19.80;99.90
47168;DHT22;32931;47.778;17.806;2023-06-10T05:26:07;19.80;99.90
47168;DHT22;32931;47.778;17.806;2023-06-10T05:28:33;19.80;99.90
47168;DHT22;32931;47.778;17.806;2023-06-10T05:31:00;19.80;99.90
47168;DHT22;32931;47.778;17.806;2023-06-10T05:33:26;19.80;99.90
47168;DHT22;32931;47.778;17.806;2023-06-10T05:35:52;19.80;99.90
47168;DHT22;32931;47.778;17.806;2023-06-10T05:38:18;19.80;99.90
47168;DHT22;32931;47.778;17.806;2023-06-10T05:40:46;19.80;99.90
47168;DHT22;32931;47.778;17.806;2023-06-10T05:43:12;19.80;99.90
47168;DHT22;32931;47.778;17.806;2023-06-10T05:45:38;19.80;99.90
47168;DHT22;32931;47.778;17.806;2023-06-10T05:48:06;19.80;99.90
47168;DHT22;32931;47.778;17.806;2023-06-10T05:50:33;19.80;99.90
47168;DHT22;32931;47.778;17.806;2023-06-10T05:53:04;19.90;99.90
47168;DHT22;32931;47.778;17.806;2023-06-10T05:55:32;19.90;99.90
47168;DHT22;32931;47.778;17.806;2023-06-10T05:57:59;20.00;99.90
47168;DHT22;32931;47.778;17.806;2023-06-10T06:00:26;20.00;99.90
47168;DHT22;32931;47.778;17.806;2023-06-10T06:02:53;20.10;99.90
47168;DHT22;32931;47.778;17.806;2023-06-10T06:05:20;20.10;99.90
47168;DHT22;32931;47.778;17.806;2023-06-10T06:07:46;20.10;99.90
47168;DHT22;32931;47.778;17.806;2023-06-10T06:10:12;20.10;99.90
47168;DHT22;32931;47.778;17.806;2023-06-10T06:12:38;20.10;99.90
47168;DHT22;32931;47.778;17.806;2023-06-10T06:15:05;20.10;99.90
47168;DHT22;32931;47.778;17.806;2023-06-10T06:17:31;20.20;99.90
47168;DHT22;32931;47.778;17.806;2023-06-10T06:19:57;20.20;99.90
47168;DHT22;32931;47.778;17.806;2023-06-10T06:22:23;20.20;99.90
47168;DHT22;32931;47.778;17.806;2023-06-10T06:24:49;20.30;99.90
47168;DHT22;32931;47.778;17.806;2023-06-10T06:27:16;20.30;99.90
47168;DHT22;32931;47.778;17.806;2023-06-10T06:29:42;20.40;99.90
47168;DHT22;32931;47.778;17.806;2023-06-10T06:32:08;20.40;99.90
47168;DHT22;32931;47.778;17.806;2023-06-10T06:34:34;20.50;99.90
47168;DHT22;32931;47.778;17.806;2023-06-10T06:37:00;20.50;99.90
47168;DHT22;32931;47.778;17.806;2023-06-10T06:39:26;20.60;99.90
47168;DHT22;32931;47.778;17.806;2023-06-10T06:41:53;20.70;99.90
47168;DHT22;32931;47.778;17.806;2023-06-10T06:44:19;20.70;99.90
47168;DHT22;32931;47.778;17.806;2023-06-10T06:46:45;20.80;99.90
47168;DHT22;32931;47.778;17.806;2023-06-10T06:49:11;20.80;99.90
47168;DHT22;32931;47.778;17.806;2023-06-10T06:51:38;20.80;99.90
47168;DHT22;32931;47.778;17.806;2023-06-10T06:54:04;20.90;99.90
47168;DHT22;32931;47.778;17.806;2023-06-10T06:56:31;20.90;99.90
47168;DHT22;32931;47.778;17.806;2023-06-10T06:58:57;20.90;99.90
47168;DHT22;32931;47.778;17.806;2023-06-10T07:01:24;20.90;99.90
47168;DHT22;32931;47.778;17.806;2023-06-10T07:03:50;20.90;99.90
47168;DHT22;32931;47.778;17.806;2023-06-10T07:06:16;21.00;99.90
47168;DHT22;32931;47.778;17.806;2023-06-10T07:08:42;21.00;99.90
47168;DHT22;32931;47.778;17.806;2023-06-10T07:11:08;21.00;99.90
47168;DHT22;32931;47.778;17.806;2023-06-10T07:13:34;21.00;99.90
47168;DHT22;32931;47.778;17.806;2023-06-10T07:16:01;21.00;99.90
47168;DHT22;32931;47.778;17.806;2023-06-10T07:18:27;21.00;99.90
47168;DHT22;32931;47.778;17.806;2023-06-10T07:20:53;21.00;99.90
47168;DHT22;32931;47.778;17.806;2023-06-10T07:23:19;21.00;99.90
47168;DHT22;32931;47.778;17.806;2023-06-10T07:25:45;20.90;99.90
47168;DHT22;32931;47.778;17.806;2023-06-10T07:28:11;21.00;99.90
47168;DHT22;32931;47.778;17.806;2023-06-10T07:30:38;20.90;99.90
47168;DHT22;32931;47.778;17.806;2023-06-10T07:33:04;20.90;99.90
47168;DHT22;32931;47.778;17.806;2023-06-10T07:35:33;21.00;99.90
47168;DHT22;32931;47.778;17.806;2023-06-10T07:37:59;21.00;99.90
47168;DHT22;32931;47.778;17.806;2023-06-10T07:40:25;21.00;99.90
47168;DHT22;32931;47.778;17.806;2023-06-10T07:42:51;21.00;99.90
47168;DHT22;32931;47.778;17.806;2023-06-10T07:45:18;21.00;99.90
47168;DHT22;32931;47.778;17.806;2023-06-10T07:47:45;21.10;99.90
47168;DHT22;32931;47.778;17.806;2023-06-10T07:50:11;21.10;99.90
47168;DHT22;32931;47.778;17.806;2023-06-10T07:52:37;21.10;99.90
47168;DHT22;32931;47.778;17.806;2023-06-10T07:55:04;21.20;99.90
47168;DHT22;32931;47.778;17.806;2023-06-10T07:57:30;21.30;99.90
47168;DHT22;32931;47.778;17.806;2023-06-10T08:00:00;21.30;99.90
47168;DHT22;32931;47.778;17.806;2023-06-10T08:02:28;21.40;99.90
47168;DHT22;32931;47.778;17.806;2023-06-10T08:04:54;21.40;99.90
47168;DHT22;32931;47.778;17.806;2023-06-10T08:07:21;21.50;99.90
47168;DHT22;32931;47.778;17.806;2023-06-10T08:09:48;21.50;99.90
47168;DHT22;32931;47.778;17.806;2023-06-10T08:12:14;21.60;99.90
47168;DHT22;32931;47.778;17.806;2023-06-10T08:14:41;21.60;99.90
47168;DHT22;32931;47.778;17.806;2023-06-10T08:17:07;21.70;99.90
47168;DHT22;32931;47.778;17.806;2023-06-10T08:19:33;21.70;99.90
47168;DHT22;32931;47.778;17.806;2023-06-10T08:21:59;21.80;99.90
47168;DHT22;32931;47.778;17.806;2023-06-10T08:24:25;21.90;99.90
47168;DHT22;32931;47.778;17.806;2023-06-10T08:26:52;22.00;99.90
47168;DHT22;32931;47.778;17.806;2023-06-10T08:29:18;22.00;99.90
47168;DHT22;32931;47.778;17.806;2023-06-10T08:31:44;22.00;99.90
47168;DHT22;32931;47.778;17.806;2023-06-10T08:34:11;22.10;99.90
47168;DHT22;32931;47.778;17.806;2023-06-10T08:36:37;22.10;99.90
47168;DHT22;32931;47.778;17.806;2023-06-10T08:39:03;22.10;99.90
47168;DHT22;32931;47.778;17.806;2023-06-10T08:41:34;22.20;99.90
47168;DHT22;32931;47.778;17.806;2023-06-10T08:44:17;22.30;99.90
47168;DHT22;32931;47.778;17.806;2023-06-10T08:46:49;22.40;99.90
47168;DHT22;32931;47.778;17.806;2023-06-10T08:49:18;22.40;99.90
47168;DHT22;32931;47.778;17.806;2023-06-10T08:51:50;22.40;99.90
47168;DHT22;32931;47.778;17.806;2023-06-10T08:54:20;22.50;99.90
47168;DHT22;32931;47.778;17.806;2023-06-10T08:56:49;22.60;99.90
47168;DHT22;32931;47.778;17.806;2023-06-10T08:59:19;22.70;99.90
47168;DHT22;32931;47.778;17.806;2023-06-10T09:01:47;22.80;99.90
47168;DHT22;32931;47.778;17.806;2023-06-10T09:04:13;22.90;99.90
47168;DHT22;32931;47.778;17.806;2023-06-10T09:06:40;23.00;99.90
47168;DHT22;32931;47.778;17.806;2023-06-10T09:09:07;23.00;99.90
47168;DHT22;32931;47.778;17.806;2023-06-10T09:11:33;23.10;99.90
47168;DHT22;32931;47.778;17.806;2023-06-10T09:13:59;23.10;99.90
47168;DHT22;32931;47.778;17.806;2023-06-10T09:16:26;23.00;99.90
47168;DHT22;32931;47.778;17.806;2023-06-10T09:18:52;23.00;99.90
47168;DHT22;32931;47.778;17.806;2023-06-10T09:21:24;23.10;99.90
47168;DHT22;32931;47.778;17.806;2023-06-10T09:23:51;23.10;99.90
47168;DHT22;32931;47.778;17.806;2023-06-10T09:26:18;23.10;99.90
47168;DHT22;32931;47.778;17.806;2023-06-10T09:28:50;23.10;99.90
47168;DHT22;32931;47.778;17.806;2023-06-10T09:31:16;23.10;99.90
47168;DHT22;32931;47.778;17.806;2023-06-10T09:33:47;23.20;99.90
47168;DHT22;32931;47.778;17.806;2023-06-10T09:36:22;23.20;99.90
47168;DHT22;32931;47.778;17.806;2023-06-10T09:38:49;23.30;99.90
47168;DHT22;32931;47.778;17.806;2023-06-10T09:41:16;23.30;99.90
47168;DHT22;32931;47.778;17.806;2023-06-10T09:43:44;23.40;99.90
47168;DHT22;32931;47.778;17.806;2023-06-10T09:46:19;23.50;99.90
47168;DHT22;32931;47.778;17.806;2023-06-10T09:48:47;23.60;99.90
47168;DHT22;32931;47.778;17.806;2023-06-10T09:51:14;23.70;99.90
47168;DHT22;32931;47.778;17.806;2023-06-10T09:53:40;23.70;99.90
47168;DHT22;32931;47.778;17.806;2023-06-10T09:56:06;23.70;99.90
47168;DHT22;32931;47.778;17.806;2023-06-10T09:58:39;23.70;99.90
47168;DHT22;32931;47.778;17.806;2023-06-10T10:01:11;23.70;99.90
47168;DHT22;32931;47.778;17.806;2023-06-10T10:03:48;23.70;99.90
47168;DHT22;32931;47.778;17.806;2023-06-10T10:06:16;23.80;99.90
47168;DHT22;32931;47.778;17.806;2023-06-10T10:08:43;23.80;99.90
47168;DHT22;32931;47.778;17.806;2023-06-10T10:11:10;24.00;99.90
47168;DHT22;32931;47.778;17.806;2023-06-10T10:13:37;24.10;99.90
47168;DHT22;32931;47.778;17.806;2023-06-10T10:16:09;24.30;99.90
47168;DHT22;32931;47.778;17.806;2023-06-10T10:18:40;24.40;99.90
47168;DHT22;32931;47.778;17.806;2023-06-10T10:21:12;24.50;99.90
47168;DHT22;32931;47.778;17.806;2023-06-10T10:23:52;24.50;99.90
47168;DHT22;32931;47.778;17.806;2023-06-10T10:26:21;24.60;99.90
47168;DHT22;32931;47.778;17.806;2023-06-10T10:28:58;24.70;99.90
47168;DHT22;32931;47.778;17.806;2023-06-10T10:31:25;24.80;99.90
47168;DHT22;32931;47.778;17.806;2023-06-10T10:33:58;24.90;99.90
47168;DHT22;32931;47.778;17.806;2023-06-10T10:36:25;25.00;99.90
47168;DHT22;32931;47.778;17.806;2023-06-10T10:38:52;25.00;99.90
47168;DHT22;32931;47.778;17.806;2023-06-10T10:41:19;24.90;99.90
47168;DHT22;32931;47.778;17.806;2023-06-10T10:43:46;24.70;99.90
47168;DHT22;32931;47.778;17.806;2023-06-10T10:46:15;24.70;99.90
47168;DHT22;32931;47.778;17.806;2023-06-10T10:48:42;24.80;99.90
47168;DHT22;32931;47.778;17.806;2023-06-10T10:51:09;24.80;99.90
47168;DHT22;32931;47.778;17.806;2023-06-10T10:53:38;24.90;99.90
47168;DHT22;32931;47.778;17.806;2023-06-10T10:56:12;24.90;99.90
47168;DHT22;32931;47.778;17.806;2023-06-10T10:58:39;25.00;99.90
47168;DHT22;32931;47.778;17.806;2023-06-10T11:01:12;25.00;99.90
47168;DHT22;32931;47.778;17.806;2023-06-10T11:03:46;25.20;99.90
47168;DHT22;32931;47.778;17.806;2023-06-10T11:06:14;25.30;99.90
47168;DHT22;32931;47.778;17.806;2023-06-10T11:11:28;25.40;99.90
47168;DHT22;32931;47.778;17.806;2023-06-10T11:16:43;25.40;99.90
47168;DHT22;32931;47.778;17.806;2023-06-10T11:19:09;25.40;99.90
47168;DHT22;32931;47.778;17.806;2023-06-10T11:21:58;25.30;99.90
47168;DHT22;32931;47.778;17.806;2023-06-10T11:24:25;25.30;99.90
47168;DHT22;32931;47.778;17.806;2023-06-10T11:26:52;25.10;99.90
47168;DHT22;32931;47.778;17.806;2023-06-10T11:29:18;25.10;99.90
47168;DHT22;32931;47.778;17.806;2023-06-10T11:31:49;25.00;99.90
47168;DHT22;32931;47.778;17.806;2023-06-10T11:34:22;24.90;99.90
47168;DHT22;32931;47.778;17.806;2023-06-10T11:36:53;24.80;99.90
47168;DHT22;32931;47.778;17.806;2023-06-10T11:39:21;24.80;99.90
47168;DHT22;32931;47.778;17.806;2023-06-10T11:41:50;24.80;99.90
47168;DHT22;32931;47.778;17.806;2023-06-10T11:44:17;24.70;99.90
47168;DHT22;32931;47.778;17.806;2023-06-10T11:46:44;24.70;99.90
47168;DHT22;32931;47.778;17.806;2023-06-10T11:49:11;24.70;99.90
47168;DHT22;32931;47.778;17.806;2023-06-10T11:51:39;24.60;99.90
47168;DHT22;32931;47.778;17.806;2023-06-10T11:54:08;24.60;99.90
47168;DHT22;32931;47.778;17.806;2023-06-10T11:56:35;24.40;99.90
47168;DHT22;32931;47.778;17.806;2023-06-10T11:59:03;24.50;99.90
47168;DHT22;32931;47.778;17.806;2023-06-10T12:01:37;24.60;99.90
47168;DHT22;32931;47.778;17.806;2023-06-10T12:04:11;24.70;99.90
47168;DHT22;32931;47.778;17.806;2023-06-10T12:06:58;25.10;99.90
47168;DHT22;32931;47.778;17.806;2023-06-10T12:09:28;25.30;99.90
47168;DHT22;32931;47.778;17.806;2023-06-10T12:11:57;25.50;99.90
47168;DHT22;32931;47.778;17.806;2023-06-10T12:14:56;25.60;99.90
47168;DHT22;32931;47.778;17.806;2023-06-10T12:17:36;25.70;99.90
47168;DHT22;32931;47.778;17.806;2023-06-10T12:20:26;25.60;99.90
47168;DHT22;32931;47.778;17.806;2023-06-10T12:22:54;25.50;99.90
47168;DHT22;32931;47.778;17.806;2023-06-10T12:25:25;25.40;99.90
47168;DHT22;32931;47.778;17.806;2023-06-10T12:27:54;25.20;99.90
47168;DHT22;32931;47.778;17.806;2023-06-10T12:30:22;25.10;99.90
47168;DHT22;32931;47.778;17.806;2023-06-10T12:32:49;24.90;99.90
47168;DHT22;32931;47.778;17.806;2023-06-10T12:35:20;24.70;99.90
47168;DHT22;32931;47.778;17.806;2023-06-10T12:38:00;24.50;99.90
47168;DHT22;32931;47.778;17.806;2023-06-10T12:40:28;24.40;99.90
47168;DHT22;32931;47.778;17.806;2023-06-10T12:42:55;24.20;99.90
47168;DHT22;32931;47.778;17.806;2023-06-10T12:45:34;24.10;99.90
47168;DHT22;32931;47.778;17.806;2023-06-10T12:48:24;24.10;99.90
47168;DHT22;32931;47.778;17.806;2023-06-10T12:50:58;24.00;99.90
47168;DHT22;32931;47.778;17.806;2023-06-10T12:53:25;24.00;99.90
47168;DHT22;32931;47.778;17.806;2023-06-10T12:55:52;23.80;99.90
47168;DHT22;32931;47.778;17.806;2023-06-10T12:58:22;23.70;99.90
47168;DHT22;32931;47.778;17.806;2023-06-10T13:00:49;23.70;99.90
47168;DHT22;32931;47.778;17.806;2023-06-10T13:03:18;23.70;99.90
47168;DHT22;32931;47.778;17.806;2023-06-10T13:05:44;23.70;99.90
47168;DHT22;32931;47.778;17.806;2023-06-10T13:08:10;23.70;99.90
47168;DHT22;32931;47.778;17.806;2023-06-10T13:10:37;23.80;99.90
47168;DHT22;32931;47.778;17.806;2023-06-10T13:13:04;23.90;99.90
47168;DHT22;32931;47.778;17.806;2023-06-10T13:15:32;23.90;99.90
47168;DHT22;32931;47.778;17.806;2023-06-10T13:18:03;24.00;99.90
47168;DHT22;32931;47.778;17.806;2023-06-10T13:20:29;24.00;99.90
47168;DHT22;32931;47.778;17.806;2023-06-10T13:22:56;24.00;99.90
47168;DHT22;32931;47.778;17.806;2023-06-10T13:25:23;24.00;99.90
47168;DHT22;32931;47.778;17.806;2023-06-10T13:27:49;24.10;99.90
47168;DHT22;32931;47.778;17.806;2023-06-10T13:30:15;24.10;99.90
47168;DHT22;32931;47.778;17.806;2023-06-10T13:32:42;24.20;99.90
47168;DHT22;32931;47.778;17.806;2023-06-10T13:35:09;24.30;99.90
47168;DHT22;32931;47.778;17.806;2023-06-10T13:37:35;24.30;99.90
47168;DHT22;32931;47.778;17.806;2023-06-10T13:40:02;24.30;99.90
47168;DHT22;32931;47.778;17.806;2023-06-10T13:42:28;24.40;99.90
47168;DHT22;32931;47.778;17.806;2023-06-10T13:44:55;24.40;99.90
47168;DHT22;32931;47.778;17.806;2023-06-10T13:47:22;24.40;99.90
47168;DHT22;32931;47.778;17.806;2023-06-10T13:49:48;24.40;99.90
47168;DHT22;32931;47.778;17.806;2023-06-10T13:52:14;24.40;99.90
47168;DHT22;32931;47.778;17.806;2023-06-10T13:54:40;24.40;99.90
47168;DHT22;32931;47.778;17.806;2023-06-10T13:57:07;24.50;99.90
47168;DHT22;32931;47.778;17.806;2023-06-10T13:59:36;24.60;99.90
47168;DHT22;32931;47.778;17.806;2023-06-10T14:02:02;24.80;99.90
47168;DHT22;32931;47.778;17.806;2023-06-10T14:04:29;25.00;99.90
47168;DHT22;32931;47.778;17.806;2023-06-10T14:06:55;25.20;99.90
47168;DHT22;32931;47.778;17.806;2023-06-10T14:09:23;25.40;99.90
47168;DHT22;32931;47.778;17.806;2023-06-10T14:11:49;25.60;99.90
47168;DHT22;32931;47.778;17.806;2023-06-10T14:14:15;26.00;99.90
47168;DHT22;32931;47.778;17.806;2023-06-10T14:16:41;26.40;99.90
47168;DHT22;32931;47.778;17.806;2023-06-10T14:19:07;26.80;99.90
47168;DHT22;32931;47.778;17.806;2023-06-10T14:21:33;27.20;99.90
47168;DHT22;32931;47.778;17.806;2023-06-10T14:23:59;27.60;99.90
47168;DHT22;32931;47.778;17.806;2023-06-10T14:26:25;27.90;99.90
47168;DHT22;32931;47.778;17.806;2023-06-10T14:28:52;28.20;99.90
47168;DHT22;32931;47.778;17.806;2023-06-10T14:31:18;28.50;99.90
47168;DHT22;32931;47.778;17.806;2023-06-10T14:33:44;28.80;99.90
47168;DHT22;32931;47.778;17.806;2023-06-10T14:36:10;28.90;99.90
47168;DHT22;32931;47.778;17.806;2023-06-10T14:38:37;28.90;99.90
47168;DHT22;32931;47.778;17.806;2023-06-10T14:41:03;28.90;99.90
47168;DHT22;32931;47.778;17.806;2023-06-10T14:43:29;29.00;99.90
47168;DHT22;32931;47.778;17.806;2023-06-10T14:45:55;29.30;99.90
47168;DHT22;32931;47.778;17.806;2023-06-10T14:48:22;29.60;99.90
47168;DHT22;32931;47.778;17.806;2023-06-10T14:50:48;29.90;99.90
47168;DHT22;32931;47.778;17.806;2023-06-10T14:53:17;30.30;99.40
47168;DHT22;32931;47.778;17.806;2023-06-10T14:55:44;30.50;98.70
47168;DHT22;32931;47.778;17.806;2023-06-10T14:58:10;30.80;98.20
47168;DHT22;32931;47.778;17.806;2023-06-10T15:00:36;31.00;97.60
47168;DHT22;32931;47.778;17.806;2023-06-10T15:03:02;31.00;97.00
47168;DHT22;32931;47.778;17.806;2023-06-10T15:05:29;30.90;96.60
47168;DHT22;32931;47.778;17.806;2023-06-10T15:07:55;31.10;96.30
47168;DHT22;32931;47.778;17.806;2023-06-10T15:10:21;31.20;96.30
47168;DHT22;32931;47.778;17.806;2023-06-10T15:12:48;31.10;95.70
47168;DHT22;32931;47.778;17.806;2023-06-10T15:15:22;31.10;94.90
47168;DHT22;32931;47.778;17.806;2023-06-10T15:17:49;31.20;95.50
47168;DHT22;32931;47.778;17.806;2023-06-10T15:20:15;31.50;95.50
47168;DHT22;32931;47.778;17.806;2023-06-10T15:22:41;31.80;94.80
47168;DHT22;32931;47.778;17.806;2023-06-10T15:25:08;31.70;94.20
47168;DHT22;32931;47.778;17.806;2023-06-10T15:27:34;31.60;94.60
47168;DHT22;32931;47.778;17.806;2023-06-10T15:30:00;31.90;94.90